sensor_id;sensor_type;location;lat;lon;timestamp;P1;durP1;ratioP1;P2;durP2;ratioP2
4055;SDS011;2043;52.184;8.690;2022-12-04T00:01:14;70.03;;;27.13;;
4055;SDS011;2043;52.184;8.690;2022-12-04T00:03:45;67.83;;;26.60;;
4055;SDS011;2043;52.184;8.690;2022-12-04T00:06:16;70.80;;;26.40;;
4055;SDS011;2043;52.184;8.690;2022-12-04T00:08:45;75.47;;;27.90;;
4055;SDS011;2043;52.184;8.690;2022-12-04T00:11:14;66.87;;;26.47;;
4055;SDS011;2043;52.184;8.690;2022-12-04T00:13:44;68.50;;;27.23;;
4055;SDS011;2043;52.184;8.690;2022-12-04T00:16:12;75.33;;;26.87;;
4055;SDS011;2043;52.184;8.690;2022-12-04T00:18:41;71.17;;;28.10;;
4055;SDS011;2043;52.184;8.690;2022-12-04T00:21:10;70.30;;;26.47;;
4055;SDS011;2043;52.184;8.690;2022-12-04T00:23:38;76.93;;;28.30;;
4055;SDS011;2043;52.184;8.690;2022-12-04T00:26:08;87.67;;;28.40;;
4055;SDS011;2043;52.184;8.690;2022-12-04T00:28:37;84.00;;;27.43;;
4055;SDS011;2043;52.184;8.690;2022-12-04T00:31:04;78.47;;;26.87;;
4055;SDS011;2043;52.184;8.690;2022-12-04T00:33:33;82.83;;;26.30;;
4055;SDS011;2043;52.184;8.690;2022-12-04T00:36:01;70.93;;;26.97;;
4055;SDS011;2043;52.184;8.690;2022-12-04T00:38:30;63.40;;;24.40;;
4055;SDS011;2043;52.184;8.690;2022-12-04T00:40:57;80.70;;;26.93;;
4055;SDS011;2043;52.184;8.690;2022-12-04T00:43:26;70.07;;;27.03;;
4055;SDS011;2043;52.184;8.690;2022-12-04T00:45:56;88.10;;;29.17;;
4055;SDS011;2043;52.184;8.690;2022-12-04T00:48:23;78.97;;;27.53;;
4055;SDS011;2043;52.184;8.690;2022-12-04T00:50:50;76.97;;;27.47;;
4055;SDS011;2043;52.184;8.690;2022-12-04T00:53:19;87.90;;;29.07;;
4055;SDS011;2043;52.184;8.690;2022-12-04T00:55:46;68.73;;;27.30;;
4055;SDS011;2043;52.184;8.690;2022-12-04T00:58:13;76.43;;;26.80;;
4055;SDS011;2043;52.184;8.690;2022-12-04T01:00:40;70.70;;;27.57;;
4055;SDS011;2043;52.184;8.690;2022-12-04T01:03:08;65.90;;;25.90;;
4055;SDS011;2043;52.184;8.690;2022-12-04T01:05:43;69.10;;;27.57;;
4055;SDS011;2043;52.184;8.690;2022-12-04T01:08:10;74.50;;;26.90;;
4055;SDS011;2043;52.184;8.690;2022-12-04T01:10:38;81.57;;;27.60;;
4055;SDS011;2043;52.184;8.690;2022-12-04T01:13:06;78.50;;;27.10;;
4055;SDS011;2043;52.184;8.690;2022-12-04T01:15:36;75.00;;;25.13;;
4055;SDS011;2043;52.184;8.690;2022-12-04T01:18:04;70.97;;;24.93;;
4055;SDS011;2043;52.184;8.690;2022-12-04T01:20:35;79.90;;;27.50;;
4055;SDS011;2043;52.184;8.690;2022-12-04T01:23:02;75.67;;;24.67;;
4055;SDS011;2043;52.184;8.690;2022-12-04T01:25:29;73.33;;;24.53;;
4055;SDS011;2043;52.184;8.690;2022-12-04T01:27:55;68.67;;;26.33;;
4055;SDS011;2043;52.184;8.690;2022-12-04T01:30:25;64.00;;;23.10;;
4055;SDS011;2043;52.184;8.690;2022-12-04T01:32:52;63.90;;;25.90;;
4055;SDS011;2043;52.184;8.690;2022-12-04T01:35:19;73.17;;;26.13;;
4055;SDS011;2043;52.184;8.690;2022-12-04T01:37:46;64.00;;;25.30;;
4055;SDS011;2043;52.184;8.690;2022-12-04T01:40:13;60.37;;;23.87;;
4055;SDS011;2043;52.184;8.690;2022-12-04T01:42:41;64.20;;;24.60;;
4055;SDS011;2043;52.184;8.690;2022-12-04T01:48:06;66.13;;;24.90;;
4055;SDS011;2043;52.184;8.690;2022-12-04T01:50:38;63.50;;;23.57;;
4055;SDS011;2043;52.184;8.690;2022-12-04T01:53:06;73.90;;;25.63;;
4055;SDS011;2043;52.184;8.690;2022-12-04T01:55:33;71.07;;;24.40;;
4055;SDS011;2043;52.184;8.690;2022-12-04T01:58:00;55.67;;;22.83;;
4055;SDS011;2043;52.184;8.690;2022-12-04T02:00:27;64.07;;;24.37;;
4055;SDS011;2043;52.184;8.690;2022-12-04T02:02:56;80.07;;;27.00;;
4055;SDS011;2043;52.184;8.690;2022-12-04T02:05:24;69.63;;;26.20;;
4055;SDS011;2043;52.184;8.690;2022-12-04T02:07:51;79.80;;;27.20;;
4055;SDS011;2043;52.184;8.690;2022-12-04T02:10:26;74.57;;;27.67;;
4055;SDS011;2043;52.184;8.690;2022-12-04T02:13:23;77.47;;;26.47;;
4055;SDS011;2043;52.184;8.690;2022-12-04T02:15:59;78.90;;;26.27;;
4055;SDS011;2043;52.184;8.690;2022-12-04T02:26:58;71.57;;;26.13;;
4055;SDS011;2043;52.184;8.690;2022-12-04T02:29:53;68.63;;;25.10;;
4055;SDS011;2043;52.184;8.690;2022-12-04T02:37:56;71.43;;;26.03;;
4055;SDS011;2043;52.184;8.690;2022-12-04T02:43:22;71.40;;;25.70;;
4055;SDS011;2043;52.184;8.690;2022-12-04T02:48:29;76.43;;;26.70;;
4055;SDS011;2043;52.184;8.690;2022-12-04T02:50:59;76.97;;;25.40;;
4055;SDS011;2043;52.184;8.690;2022-12-04T02:53:31;71.40;;;24.73;;
4055;SDS011;2043;52.184;8.690;2022-12-04T02:56:02;67.37;;;25.70;;
4055;SDS011;2043;52.184;8.690;2022-12-04T02:58:38;70.70;;;24.97;;
4055;SDS011;2043;52.184;8.690;2022-12-04T03:01:10;70.00;;;24.63;;
4055;SDS011;2043;52.184;8.690;2022-12-04T03:03:52;69.37;;;25.30;;
4055;SDS011;2043;52.184;8.690;2022-12-04T03:06:33;72.73;;;24.77;;
4055;SDS011;2043;52.184;8.690;2022-12-04T03:09:09;67.50;;;24.23;;
4055;SDS011;2043;52.184;8.690;2022-12-04T03:11:40;75.87;;;25.40;;
4055;SDS011;2043;52.184;8.690;2022-12-04T03:14:16;63.70;;;23.67;;
4055;SDS011;2043;52.184;8.690;2022-12-04T03:16:45;68.17;;;24.70;;
4055;SDS011;2043;52.184;8.690;2022-12-04T03:19:17;73.67;;;25.27;;
4055;SDS011;2043;52.184;8.690;2022-12-04T03:21:51;67.00;;;24.57;;
4055;SDS011;2043;52.184;8.690;2022-12-04T03:29:57;81.97;;;25.73;;
4055;SDS011;2043;52.184;8.690;2022-12-04T03:38:24;75.80;;;23.93;;
4055;SDS011;2043;52.184;8.690;2022-12-04T03:41:02;58.10;;;22.07;;
4055;SDS011;2043;52.184;8.690;2022-12-04T03:48:50;69.57;;;23.70;;
4055;SDS011;2043;52.184;8.690;2022-12-04T03:51:33;70.60;;;25.50;;
4055;SDS011;2043;52.184;8.690;2022-12-04T03:54:20;67.10;;;23.60;;
4055;SDS011;2043;52.184;8.690;2022-12-04T03:56:54;65.03;;;25.30;;
4055;SDS011;2043;52.184;8.690;2022-12-04T03:59:29;65.63;;;23.33;;
4055;SDS011;2043;52.184;8.690;2022-12-04T04:02:01;61.73;;;22.70;;
4055;SDS011;2043;52.184;8.690;2022-12-04T04:04:32;60.50;;;21.70;;
4055;SDS011;2043;52.184;8.690;2022-12-04T04:07:07;67.03;;;22.60;;
4055;SDS011;2043;52.184;8.690;2022-12-04T04:09:38;65.07;;;22.80;;
4055;SDS011;2043;52.184;8.690;2022-12-04T04:12:09;57.20;;;21.00;;
4055;SDS011;2043;52.184;8.690;2022-12-04T04:17:46;58.37;;;21.17;;
4055;SDS011;2043;52.184;8.690;2022-12-04T04:20:21;66.70;;;22.00;;
4055;SDS011;2043;52.184;8.690;2022-12-04T04:23:10;51.33;;;18.87;;
4055;SDS011;2043;52.184;8.690;2022-12-04T04:25:57;48.07;;;18.93;;
4055;SDS011;2043;52.184;8.690;2022-12-04T04:28:35;59.57;;;19.70;;
4055;SDS011;2043;52.184;8.690;2022-12-04T04:33:59;55.17;;;18.63;;
4055;SDS011;2043;52.184;8.690;2022-12-04T04:38:58;51.40;;;19.37;;
4055;SDS011;2043;52.184;8.690;2022-12-04T04:41:38;54.20;;;19.47;;
4055;SDS011;2043;52.184;8.690;2022-12-04T04:44:33;45.47;;;16.37;;
4055;SDS011;2043;52.184;8.690;2022-12-04T04:47:04;55.90;;;21.23;;
4055;SDS011;2043;52.184;8.690;2022-12-04T04:49:34;50.57;;;18.30;;
4055;SDS011;2043;52.184;8.690;2022-12-04T04:52:04;58.30;;;20.13;;
4055;SDS011;2043;52.184;8.690;2022-12-04T04:54:32;57.83;;;20.30;;
4055;SDS011;2043;52.184;8.690;2022-12-04T04:57:00;52.20;;;19.73;;
4055;SDS011;2043;52.184;8.690;2022-12-04T04:59:27;55.03;;;19.07;;
4055;SDS011;2043;52.184;8.690;2022-12-04T05:01:54;55.03;;;20.80;;
4055;SDS011;2043;52.184;8.690;2022-12-04T05:04:22;52.97;;;19.07;;
4055;SDS011;2043;52.184;8.690;2022-12-04T05:06:49;58.80;;;20.10;;
4055;SDS011;2043;52.184;8.690;2022-12-04T05:09:15;54.37;;;19.23;;
4055;SDS011;2043;52.184;8.690;2022-12-04T05:11:42;69.17;;;21.00;;
4055;SDS011;2043;52.184;8.690;2022-12-04T05:14:09;61.77;;;20.83;;
4055;SDS011;2043;52.184;8.690;2022-12-04T05:16:37;58.37;;;20.20;;
4055;SDS011;2043;52.184;8.690;2022-12-04T05:19:05;51.70;;;19.43;;
4055;SDS011;2043;52.184;8.690;2022-12-04T05:21:50;63.33;;;20.07;;
4055;SDS011;2043;52.184;8.690;2022-12-04T05:24:17;53.57;;;18.60;;
4055;SDS011;2043;52.184;8.690;2022-12-04T05:26:44;46.70;;;17.50;;
4055;SDS011;2043;52.184;8.690;2022-12-04T05:29:10;52.20;;;18.07;;
4055;SDS011;2043;52.184;8.690;2022-12-04T05:31:37;58.77;;;17.20;;
4055;SDS011;2043;52.184;8.690;2022-12-04T05:34:04;51.87;;;18.93;;
4055;SDS011;2043;52.184;8.690;2022-12-04T05:36:31;52.97;;;19.40;;
4055;SDS011;2043;52.184;8.690;2022-12-04T05:38:57;48.23;;;17.83;;
4055;SDS011;2043;52.184;8.690;2022-12-04T05:41:24;46.77;;;16.60;;
4055;SDS011;2043;52.184;8.690;2022-12-04T05:43:51;52.50;;;17.87;;
4055;SDS011;2043;52.184;8.690;2022-12-04T05:46:18;55.83;;;19.70;;
4055;SDS011;2043;52.184;8.690;2022-12-04T05:48:44;52.73;;;18.07;;
4055;SDS011;2043;52.184;8.690;2022-12-04T05:51:11;50.97;;;17.73;;
4055;SDS011;2043;52.184;8.690;2022-12-04T05:53:38;49.37;;;16.67;;
4055;SDS011;2043;52.184;8.690;2022-12-04T05:56:06;49.70;;;18.60;;
4055;SDS011;2043;52.184;8.690;2022-12-04T05:58:36;52.43;;;20.17;;
4055;SDS011;2043;52.184;8.690;2022-12-04T06:01:22;46.47;;;18.43;;
4055;SDS011;2043;52.184;8.690;2022-12-04T06:03:49;47.80;;;16.70;;
4055;SDS011;2043;52.184;8.690;2022-12-04T06:06:17;46.27;;;17.87;;
4055;SDS011;2043;52.184;8.690;2022-12-04T06:08:49;49.33;;;17.40;;
4055;SDS011;2043;52.184;8.690;2022-12-04T06:11:18;46.07;;;17.47;;
4055;SDS011;2043;52.184;8.690;2022-12-04T06:13:47;42.70;;;16.70;;
4055;SDS011;2043;52.184;8.690;2022-12-04T06:16:15;51.10;;;19.47;;
4055;SDS011;2043;52.184;8.690;2022-12-04T06:18:50;48.10;;;17.43;;
4055;SDS011;2043;52.184;8.690;2022-12-04T06:21:19;46.83;;;17.30;;
4055;SDS011;2043;52.184;8.690;2022-12-04T06:23:47;46.20;;;17.27;;
4055;SDS011;2043;52.184;8.690;2022-12-04T06:26:14;55.40;;;19.17;;
4055;SDS011;2043;52.184;8.690;2022-12-04T06:28:41;49.57;;;17.77;;
4055;SDS011;2043;52.184;8.690;2022-12-04T06:31:09;46.23;;;17.47;;
4055;SDS011;2043;52.184;8.690;2022-12-04T06:33:38;46.10;;;17.87;;
4055;SDS011;2043;52.184;8.690;2022-12-04T06:36:07;64.23;;;19.10;;
4055;SDS011;2043;52.184;8.690;2022-12-04T06:38:37;44.97;;;17.43;;
4055;SDS011;2043;52.184;8.690;2022-12-04T06:41:04;47.60;;;17.17;;
4055;SDS011;2043;52.184;8.690;2022-12-04T06:43:33;45.93;;;17.97;;
4055;SDS011;2043;52.184;8.690;2022-12-04T06:46:07;43.00;;;18.10;;
4055;SDS011;2043;52.184;8.690;2022-12-04T06:48:44;48.33;;;18.30;;
4055;SDS011;2043;52.184;8.690;2022-12-04T06:51:13;45.13;;;17.57;;
4055;SDS011;2043;52.184;8.690;2022-12-04T06:53:42;42.83;;;17.60;;
4055;SDS011;2043;52.184;8.690;2022-12-04T06:56:10;53.17;;;18.80;;
4055;SDS011;2043;52.184;8.690;2022-12-04T06:58:39;46.53;;;18.53;;
4055;SDS011;2043;52.184;8.690;2022-12-04T07:01:10;46.23;;;17.50;;
4055;SDS011;2043;52.184;8.690;2022-12-04T07:03:40;55.97;;;19.30;;
4055;SDS011;2043;52.184;8.690;2022-12-04T07:06:17;44.67;;;18.07;;
4055;SDS011;2043;52.184;8.690;2022-12-04T07:08:47;48.73;;;19.40;;
4055;SDS011;2043;52.184;8.690;2022-12-04T07:11:17;50.07;;;18.80;;
4055;SDS011;2043;52.184;8.690;2022-12-04T07:13:44;50.60;;;18.40;;
4055;SDS011;2043;52.184;8.690;2022-12-04T07:16:12;53.87;;;19.60;;
4055;SDS011;2043;52.184;8.690;2022-12-04T07:18:40;61.60;;;20.47;;
4055;SDS011;2043;52.184;8.690;2022-12-04T07:21:14;53.60;;;19.13;;
4055;SDS011;2043;52.184;8.690;2022-12-04T07:23:43;53.03;;;20.27;;
4055;SDS011;2043;52.184;8.690;2022-12-04T07:26:11;54.47;;;19.90;;
4055;SDS011;2043;52.184;8.690;2022-12-04T07:28:39;54.90;;;19.80;;
4055;SDS011;2043;52.184;8.690;2022-12-04T07:31:11;47.00;;;19.10;;
4055;SDS011;2043;52.184;8.690;2022-12-04T07:33:39;51.43;;;19.60;;
4055;SDS011;2043;52.184;8.690;2022-12-04T07:36:08;51.70;;;19.20;;
4055;SDS011;2043;52.184;8.690;2022-12-04T07:38:37;56.67;;;20.53;;
4055;SDS011;2043;52.184;8.690;2022-12-04T07:41:04;53.63;;;20.20;;
4055;SDS011;2043;52.184;8.690;2022-12-04T07:43:32;54.70;;;20.47;;
4055;SDS011;2043;52.184;8.690;2022-12-04T07:46:03;60.33;;;22.30;;
4055;SDS011;2043;52.184;8.690;2022-12-04T07:48:32;52.40;;;21.20;;
4055;SDS011;2043;52.184;8.690;2022-12-04T07:51:03;56.43;;;21.97;;
4055;SDS011;2043;52.184;8.690;2022-12-04T07:53:30;62.10;;;21.67;;
4055;SDS011;2043;52.184;8.690;2022-12-04T07:55:58;58.03;;;20.93;;
4055;SDS011;2043;52.184;8.690;2022-12-04T07:58:25;56.13;;;21.40;;
4055;SDS011;2043;52.184;8.690;2022-12-04T08:00:52;55.77;;;21.20;;
4055;SDS011;2043;52.184;8.690;2022-12-04T08:03:19;54.23;;;22.17;;
4055;SDS011;2043;52.184;8.690;2022-12-04T08:05:46;60.20;;;21.97;;
4055;SDS011;2043;52.184;8.690;2022-12-04T08:08:13;61.63;;;23.23;;
4055;SDS011;2043;52.184;8.690;2022-12-04T08:10:40;62.60;;;23.57;;
4055;SDS011;2043;52.184;8.690;2022-12-04T08:13:07;70.00;;;24.63;;
4055;SDS011;2043;52.184;8.690;2022-12-04T08:15:34;67.07;;;22.57;;
4055;SDS011;2043;52.184;8.690;2022-12-04T08:18:01;62.60;;;23.30;;
4055;SDS011;2043;52.184;8.690;2022-12-04T08:20:28;63.53;;;23.83;;
4055;SDS011;2043;52.184;8.690;2022-12-04T08:22:55;69.00;;;25.10;;
4055;SDS011;2043;52.184;8.690;2022-12-04T08:25:21;59.83;;;23.93;;
4055;SDS011;2043;52.184;8.690;2022-12-04T08:27:48;66.37;;;25.57;;
4055;SDS011;2043;52.184;8.690;2022-12-04T08:30:15;68.60;;;25.00;;
4055;SDS011;2043;52.184;8.690;2022-12-04T08:32:42;63.00;;;24.10;;
4055;SDS011;2043;52.184;8.690;2022-12-04T08:35:09;61.63;;;25.07;;
4055;SDS011;2043;52.184;8.690;2022-12-04T08:37:36;66.67;;;25.40;;
4055;SDS011;2043;52.184;8.690;2022-12-04T08:40:03;70.33;;;25.40;;
4055;SDS011;2043;52.184;8.690;2022-12-04T08:42:30;72.10;;;26.17;;
4055;SDS011;2043;52.184;8.690;2022-12-04T08:44:57;65.13;;;25.00;;
4055;SDS011;2043;52.184;8.690;2022-12-04T08:47:24;64.73;;;26.30;;
4055;SDS011;2043;52.184;8.690;2022-12-04T08:49:50;64.83;;;24.80;;
4055;SDS011;2043;52.184;8.690;2022-12-04T08:52:17;66.03;;;25.90;;
4055;SDS011;2043;52.184;8.690;2022-12-04T08:54:44;62.73;;;25.30;;
4055;SDS011;2043;52.184;8.690;2022-12-04T08:57:11;65.40;;;25.77;;
4055;SDS011;2043;52.184;8.690;2022-12-04T08:59:37;67.70;;;28.20;;
4055;SDS011;2043;52.184;8.690;2022-12-04T09:02:04;73.37;;;26.20;;
4055;SDS011;2043;52.184;8.690;2022-12-04T09:04:32;69.50;;;26.27;;
4055;SDS011;2043;52.184;8.690;2022-12-04T09:07:00;75.00;;;27.30;;
4055;SDS011;2043;52.184;8.690;2022-12-04T09:09:26;71.40;;;27.00;;
4055;SDS011;2043;52.184;8.690;2022-12-04T09:11:53;76.27;;;27.70;;
4055;SDS011;2043;52.184;8.690;2022-12-04T09:14:21;76.70;;;28.60;;
4055;SDS011;2043;52.184;8.690;2022-12-04T09:16:51;67.73;;;26.43;;
4055;SDS011;2043;52.184;8.690;2022-12-04T09:19:18;70.00;;;25.07;;
4055;SDS011;2043;52.184;8.690;2022-12-04T09:21:46;72.20;;;27.20;;
4055;SDS011;2043;52.184;8.690;2022-12-04T09:24:12;74.73;;;27.00;;
4055;SDS011;2043;52.184;8.690;2022-12-04T09:26:40;71.23;;;26.83;;
4055;SDS011;2043;52.184;8.690;2022-12-04T09:29:09;65.97;;;26.83;;
4055;SDS011;2043;52.184;8.690;2022-12-04T09:31:37;69.17;;;27.57;;
4055;SDS011;2043;52.184;8.690;2022-12-04T09:34:04;75.70;;;28.10;;
4055;SDS011;2043;52.184;8.690;2022-12-04T09:36:31;79.47;;;28.80;;
4055;SDS011;2043;52.184;8.690;2022-12-04T09:38:58;81.00;;;28.70;;
4055;SDS011;2043;52.184;8.690;2022-12-04T09:44:32;72.80;;;28.13;;
4055;SDS011;2043;52.184;8.690;2022-12-04T09:47:33;76.17;;;29.13;;
4055;SDS011;2043;52.184;8.690;2022-12-04T09:55:35;89.13;;;30.03;;
4055;SDS011;2043;52.184;8.690;2022-12-04T09:58:03;83.20;;;31.30;;
4055;SDS011;2043;52.184;8.690;2022-12-04T10:00:34;84.13;;;29.40;;
4055;SDS011;2043;52.184;8.690;2022-12-04T10:03:05;81.80;;;31.23;;
4055;SDS011;2043;52.184;8.690;2022-12-04T10:10:53;77.63;;;29.13;;
4055;SDS011;2043;52.184;8.690;2022-12-04T10:16:23;80.43;;;29.03;;
4055;SDS011;2043;52.184;8.690;2022-12-04T10:21:42;79.10;;;30.20;;
4055;SDS011;2043;52.184;8.690;2022-12-04T10:24:30;78.23;;;30.47;;
4055;SDS011;2043;52.184;8.690;2022-12-04T10:29:46;75.80;;;29.33;;
4055;SDS011;2043;52.184;8.690;2022-12-04T10:32:20;88.00;;;30.30;;
4055;SDS011;2043;52.184;8.690;2022-12-04T10:34:52;81.80;;;30.37;;
4055;SDS011;2043;52.184;8.690;2022-12-04T10:37:21;79.83;;;31.17;;
4055;SDS011;2043;52.184;8.690;2022-12-04T10:39:53;82.30;;;31.20;;
4055;SDS011;2043;52.184;8.690;2022-12-04T10:42:51;75.60;;;29.80;;
4055;SDS011;2043;52.184;8.690;2022-12-04T10:45:26;79.17;;;29.27;;
4055;SDS011;2043;52.184;8.690;2022-12-04T10:47:53;74.90;;;29.57;;
4055;SDS011;2043;52.184;8.690;2022-12-04T10:50:20;74.77;;;29.00;;
4055;SDS011;2043;52.184;8.690;2022-12-04T10:52:49;65.53;;;27.87;;
4055;SDS011;2043;52.184;8.690;2022-12-04T10:55:29;84.07;;;30.80;;
4055;SDS011;2043;52.184;8.690;2022-12-04T10:57:58;84.67;;;30.30;;
4055;SDS011;2043;52.184;8.690;2022-12-04T11:00:29;84.03;;;28.70;;
4055;SDS011;2043;52.184;8.690;2022-12-04T11:03:01;76.37;;;30.07;;
4055;SDS011;2043;52.184;8.690;2022-12-04T11:05:34;74.37;;;30.40;;
4055;SDS011;2043;52.184;8.690;2022-12-04T11:08:05;78.97;;;28.17;;
4055;SDS011;2043;52.184;8.690;2022-12-04T11:10:37;78.10;;;30.90;;
4055;SDS011;2043;52.184;8.690;2022-12-04T11:15:45;70.37;;;28.40;;
4055;SDS011;2043;52.184;8.690;2022-12-04T11:18:24;78.20;;;30.80;;
4055;SDS011;2043;52.184;8.690;2022-12-04T11:21:03;85.00;;;29.70;;
4055;SDS011;2043;52.184;8.690;2022-12-04T11:23:31;77.60;;;31.47;;
4055;SDS011;2043;52.184;8.690;2022-12-04T11:26:00;82.43;;;31.77;;
4055;SDS011;2043;52.184;8.690;2022-12-04T11:28:31;79.90;;;29.87;;
4055;SDS011;2043;52.184;8.690;2022-12-04T11:31:08;82.40;;;29.87;;
4055;SDS011;2043;52.184;8.690;2022-12-04T11:33:44;78.90;;;29.37;;
4055;SDS011;2043;52.184;8.690;2022-12-04T11:36:27;80.63;;;30.60;;
4055;SDS011;2043;52.184;8.690;2022-12-04T11:41:38;78.17;;;28.33;;
4055;SDS011;2043;52.184;8.690;2022-12-04T11:44:05;83.40;;;29.60;;
4055;SDS011;2043;52.184;8.690;2022-12-04T11:46:50;85.60;;;30.00;;
4055;SDS011;2043;52.184;8.690;2022-12-04T11:49:20;74.30;;;28.27;;
4055;SDS011;2043;52.184;8.690;2022-12-04T11:57:36;91.67;;;31.87;;
4055;SDS011;2043;52.184;8.690;2022-12-04T12:00:15;89.60;;;33.00;;
4055;SDS011;2043;52.184;8.690;2022-12-04T12:05:54;90.83;;;31.87;;
4055;SDS011;2043;52.184;8.690;2022-12-04T12:08:59;85.63;;;31.13;;
4055;SDS011;2043;52.184;8.690;2022-12-04T12:11:37;84.43;;;32.03;;
4055;SDS011;2043;52.184;8.690;2022-12-04T12:14:11;75.87;;;29.03;;
4055;SDS011;2043;52.184;8.690;2022-12-04T12:33:38;78.53;;;30.73;;
4055;SDS011;2043;52.184;8.690;2022-12-04T12:36:11;81.00;;;30.80;;
4055;SDS011;2043;52.184;8.690;2022-12-04T12:38:43;89.23;;;32.43;;
4055;SDS011;2043;52.184;8.690;2022-12-04T12:41:36;69.37;;;27.50;;
4055;SDS011;2043;52.184;8.690;2022-12-04T12:44:13;80.53;;;31.20;;
4055;SDS011;2043;52.184;8.690;2022-12-04T12:47:04;84.00;;;30.70;;
4055;SDS011;2043;52.184;8.690;2022-12-04T12:49:58;82.73;;;31.37;;
4055;SDS011;2043;52.184;8.690;2022-12-04T12:52:34;82.37;;;30.33;;
4055;SDS011;2043;52.184;8.690;2022-12-04T13:00:23;87.90;;;31.13;;
4055;SDS011;2043;52.184;8.690;2022-12-04T13:02:52;83.13;;;30.50;;
4055;SDS011;2043;52.184;8.690;2022-12-04T13:05:24;86.77;;;29.57;;
4055;SDS011;2043;52.184;8.690;2022-12-04T13:10:47;85.20;;;29.87;;
4055;SDS011;2043;52.184;8.690;2022-12-04T13:13:24;78.80;;;29.67;;
4055;SDS011;2043;52.184;8.690;2022-12-04T13:16:09;69.33;;;28.67;;
4055;SDS011;2043;52.184;8.690;2022-12-04T13:21:35;90.43;;;32.53;;
4055;SDS011;2043;52.184;8.690;2022-12-04T13:27:15;68.50;;;27.30;;
4055;SDS011;2043;52.184;8.690;2022-12-04T13:38:14;85.33;;;31.27;;
4055;SDS011;2043;52.184;8.690;2022-12-04T13:40:56;81.30;;;29.97;;
4055;SDS011;2043;52.184;8.690;2022-12-04T13:43:45;74.87;;;29.40;;
4055;SDS011;2043;52.184;8.690;2022-12-04T13:51:56;70.13;;;28.70;;
4055;SDS011;2043;52.184;8.690;2022-12-04T13:54:26;84.27;;;28.93;;
4055;SDS011;2043;52.184;8.690;2022-12-04T13:56:57;76.40;;;29.77;;
4055;SDS011;2043;52.184;8.690;2022-12-04T13:59:38;79.50;;;31.53;;
4055;SDS011;2043;52.184;8.690;2022-12-04T14:05:09;91.47;;;33.60;;
4055;SDS011;2043;52.184;8.690;2022-12-04T14:07:38;82.57;;;31.40;;
4055;SDS011;2043;52.184;8.690;2022-12-04T14:12:41;70.80;;;29.20;;
4055;SDS011;2043;52.184;8.690;2022-12-04T14:17:55;78.33;;;28.03;;
4055;SDS011;2043;52.184;8.690;2022-12-04T14:20:28;71.83;;;26.40;;
4055;SDS011;2043;52.184;8.690;2022-12-04T14:23:20;78.37;;;28.77;;
4055;SDS011;2043;52.184;8.690;2022-12-04T14:25:53;72.30;;;26.70;;
4055;SDS011;2043;52.184;8.690;2022-12-04T14:28:27;70.20;;;28.23;;
4055;SDS011;2043;52.184;8.690;2022-12-04T14:34:26;72.97;;;26.47;;
4055;SDS011;2043;52.184;8.690;2022-12-04T14:36:47;72.07;;;25.20;;
4055;SDS011;2043;52.184;8.690;2022-12-04T14:39:23;70.03;;;27.70;;
4055;SDS011;2043;52.184;8.690;2022-12-04T14:45:20;67.47;;;25.97;;
4055;SDS011;2043;52.184;8.690;2022-12-04T14:48:01;69.60;;;27.10;;
4055;SDS011;2043;52.184;8.690;2022-12-04T14:54:00;76.33;;;27.77;;
4055;SDS011;2043;52.184;8.690;2022-12-04T14:56:41;74.00;;;27.13;;
4055;SDS011;2043;52.184;8.690;2022-12-04T14:59:32;73.27;;;28.57;;
4055;SDS011;2043;52.184;8.690;2022-12-04T15:02:10;75.23;;;27.70;;
4055;SDS011;2043;52.184;8.690;2022-12-04T15:04:49;69.20;;;27.07;;
4055;SDS011;2043;52.184;8.690;2022-12-04T15:07:17;68.13;;;26.83;;
4055;SDS011;2043;52.184;8.690;2022-12-04T15:09:54;60.50;;;25.90;;
4055;SDS011;2043;52.184;8.690;2022-12-04T15:12:46;66.00;;;24.70;;
4055;SDS011;2043;52.184;8.690;2022-12-04T15:15:24;73.17;;;26.60;;
4055;SDS011;2043;52.184;8.690;2022-12-04T15:20:42;65.73;;;26.30;;
4055;SDS011;2043;52.184;8.690;2022-12-04T15:23:14;68.37;;;25.67;;
4055;SDS011;2043;52.184;8.690;2022-12-04T15:25:43;64.07;;;23.37;;
4055;SDS011;2043;52.184;8.690;2022-12-04T15:28:13;61.03;;;23.37;;
4055;SDS011;2043;52.184;8.690;2022-12-04T15:30:46;67.73;;;25.23;;
4055;SDS011;2043;52.184;8.690;2022-12-04T15:33:16;62.97;;;23.93;;
4055;SDS011;2043;52.184;8.690;2022-12-04T15:35:56;58.80;;;23.70;;
4055;SDS011;2043;52.184;8.690;2022-12-04T15:38:33;61.70;;;24.23;;
4055;SDS011;2043;52.184;8.690;2022-12-04T15:41:01;61.67;;;23.40;;
4055;SDS011;2043;52.184;8.690;2022-12-04T15:43:32;65.50;;;26.87;;
4055;SDS011;2043;52.184;8.690;2022-12-04T15:46:21;55.97;;;23.60;;
4055;SDS011;2043;52.184;8.690;2022-12-04T15:48:50;74.63;;;27.10;;
4055;SDS011;2043;52.184;8.690;2022-12-04T15:51:18;70.20;;;26.47;;
4055;SDS011;2043;52.184;8.690;2022-12-04T15:53:46;72.87;;;28.27;;
4055;SDS011;2043;52.184;8.690;2022-12-04T15:56:17;67.83;;;25.87;;
4055;SDS011;2043;52.184;8.690;2022-12-04T16:01:23;61.90;;;23.77;;
4055;SDS011;2043;52.184;8.690;2022-12-04T16:03:51;59.37;;;24.63;;
4055;SDS011;2043;52.184;8.690;2022-12-04T16:06:26;71.13;;;26.27;;
4055;SDS011;2043;52.184;8.690;2022-12-04T16:08:55;70.77;;;24.87;;
4055;SDS011;2043;52.184;8.690;2022-12-04T16:16:30;66.73;;;26.60;;
4055;SDS011;2043;52.184;8.690;2022-12-04T16:18:57;66.80;;;25.93;;
4055;SDS011;2043;52.184;8.690;2022-12-04T16:21:28;68.27;;;25.70;;
4055;SDS011;2043;52.184;8.690;2022-12-04T16:24:02;79.53;;;29.13;;
4055;SDS011;2043;52.184;8.690;2022-12-04T16:26:30;77.90;;;27.40;;
4055;SDS011;2043;52.184;8.690;2022-12-04T16:28:57;67.43;;;25.93;;
4055;SDS011;2043;52.184;8.690;2022-12-04T16:31:24;61.83;;;23.83;;
4055;SDS011;2043;52.184;8.690;2022-12-04T16:33:51;62.90;;;25.67;;
4055;SDS011;2043;52.184;8.690;2022-12-04T16:36:18;73.27;;;27.37;;
4055;SDS011;2043;52.184;8.690;2022-12-04T16:38:45;70.90;;;27.90;;
4055;SDS011;2043;52.184;8.690;2022-12-04T16:41:13;67.40;;;25.70;;
4055;SDS011;2043;52.184;8.690;2022-12-04T16:43:41;82.67;;;25.63;;
4055;SDS011;2043;52.184;8.690;2022-12-04T16:46:10;66.10;;;25.00;;
4055;SDS011;2043;52.184;8.690;2022-12-04T16:48:40;63.03;;;25.23;;
4055;SDS011;2043;52.184;8.690;2022-12-04T16:51:11;68.77;;;26.83;;
4055;SDS011;2043;52.184;8.690;2022-12-04T16:53:50;67.87;;;26.60;;
4055;SDS011;2043;52.184;8.690;2022-12-04T16:56:18;65.07;;;25.20;;
4055;SDS011;2043;52.184;8.690;2022-12-04T16:58:45;62.63;;;25.87;;
4055;SDS011;2043;52.184;8.690;2022-12-04T17:03:47;64.50;;;24.90;;
4055;SDS011;2043;52.184;8.690;2022-12-04T17:06:15;62.93;;;24.53;;
4055;SDS011;2043;52.184;8.690;2022-12-04T17:08:42;68.23;;;25.03;;
4055;SDS011;2043;52.184;8.690;2022-12-04T17:11:13;67.00;;;23.63;;
4055;SDS011;2043;52.184;8.690;2022-12-04T17:13:41;62.57;;;24.20;;
4055;SDS011;2043;52.184;8.690;2022-12-04T17:16:08;73.40;;;25.30;;
4055;SDS011;2043;52.184;8.690;2022-12-04T17:18:40;62.20;;;24.47;;
4055;SDS011;2043;52.184;8.690;2022-12-04T17:21:11;59.40;;;25.20;;
4055;SDS011;2043;52.184;8.690;2022-12-04T17:23:39;67.67;;;25.30;;
4055;SDS011;2043;52.184;8.690;2022-12-04T17:26:07;66.77;;;25.80;;
4055;SDS011;2043;52.184;8.690;2022-12-04T17:28:36;59.93;;;23.77;;
4055;SDS011;2043;52.184;8.690;2022-12-04T17:31:04;64.97;;;24.57;;
4055;SDS011;2043;52.184;8.690;2022-12-04T17:33:38;65.57;;;26.10;;
4055;SDS011;2043;52.184;8.690;2022-12-04T17:36:09;63.70;;;24.10;;
4055;SDS011;2043;52.184;8.690;2022-12-04T17:38:37;58.40;;;23.63;;
4055;SDS011;2043;52.184;8.690;2022-12-04T17:41:06;58.70;;;25.10;;
4055;SDS011;2043;52.184;8.690;2022-12-04T17:43:34;60.83;;;24.13;;
4055;SDS011;2043;52.184;8.690;2022-12-04T17:46:01;63.50;;;26.13;;
4055;SDS011;2043;52.184;8.690;2022-12-04T17:48:33;51.70;;;22.07;;
4055;SDS011;2043;52.184;8.690;2022-12-04T17:51:03;57.37;;;23.50;;
4055;SDS011;2043;52.184;8.690;2022-12-04T17:53:32;66.60;;;24.63;;